createdAt,value
2023-02-19T00:02:10.048Z,82.81
2023-02-19T00:06:11.405Z,82.96
2023-02-19T00:10:12.802Z,83.45
2023-02-19T00:14:15.505Z,83.81
2023-02-19T00:18:18.235Z,83.70
2023-02-19T00:22:19.584Z,84.03
2023-02-19T00:26:21.268Z,84.19
2023-02-19T00:30:22.630Z,84.67
2023-02-19T00:34:25.334Z,85.84
2023-02-19T00:38:26.734Z,85.91
2023-02-19T00:42:28.085Z,85.91
2023-02-19T00:46:30.555Z,85.85
2023-02-19T00:50:33.281Z,86.11
2023-02-19T00:54:34.762Z,86.38
2023-02-19T00:58:36.160Z,86.60
2023-02-19T01:02:37.507Z,87.64
2023-02-19T01:06:40.319Z,89.46
2023-02-19T01:10:41.895Z,90.99
2023-02-19T01:14:43.285Z,92.11
2023-02-19T01:18:45.273Z,92.79
2023-02-19T01:22:48.000Z,93.60
2023-02-19T01:26:49.384Z,94.09
2023-02-19T01:30:50.721Z,94.30
2023-02-19T01:34:52.047Z,94.80
2023-02-19T01:38:55.064Z,94.91
2023-02-19T01:42:56.403Z,95.21
2023-02-19T01:46:57.755Z,95.64
2023-02-19T01:51:03.968Z,95.96
2023-02-19T01:55:07.925Z,96.35
2023-02-19T01:59:09.474Z,96.50
2023-02-19T02:03:11.106Z,96.53
2023-02-19T02:07:12.721Z,96.76
2023-02-19T02:11:15.440Z,96.67
2023-02-19T02:15:17.106Z,96.49
2023-02-19T02:19:29.839Z,96.35
2023-02-19T02:23:39.391Z,96.48
2023-02-19T02:27:51.350Z,96.87
2023-02-19T02:31:57.023Z,96.76
2023-02-19T02:36:00.002Z,96.84
2023-02-19T02:40:02.104Z,96.94
2023-02-19T02:44:03.461Z,97.07
2023-02-19T02:48:19.854Z,96.58
2023-02-19T02:52:21.909Z,96.91
2023-02-19T02:56:24.434Z,97.21
2023-02-19T03:00:26.497Z,97.26
2023-02-19T03:04:31.631Z,97.29
2023-02-19T03:08:36.622Z,97.78
2023-02-19T03:12:39.684Z,97.89
2023-02-19T03:16:43.124Z,97.58
2023-02-19T03:20:48.465Z,97.75
2023-02-19T03:24:52.745Z,97.30
2023-02-19T03:28:54.996Z,97.05
2023-02-19T03:32:58.627Z,97.19
2023-02-19T03:37:04.261Z,97.11
2023-02-19T03:41:10.684Z,96.95
2023-02-19T03:45:23.861Z,96.72
2023-02-19T03:49:29.347Z,96.80
2023-02-19T03:53:34.676Z,96.92
2023-02-19T03:57:39.259Z,96.97
2023-02-19T04:01:43.370Z,96.75
2023-02-19T04:05:46.467Z,97.06
2023-02-19T04:09:50.834Z,97.07
2023-02-19T04:13:56.248Z,97.25
2023-02-19T04:17:59.741Z,96.76
2023-02-19T04:22:01.716Z,96.74
2023-02-19T04:26:05.204Z,96.66
2023-02-19T04:30:08.765Z,95.88
2023-02-19T04:34:10.161Z,96.10
2023-02-19T04:38:11.576Z,95.96
2023-02-19T04:42:14.294Z,95.42
2023-02-19T04:46:15.776Z,95.35
2023-02-19T04:50:17.215Z,95.04
2023-02-19T04:54:18.660Z,94.94
2023-02-19T04:58:21.688Z,95.29
2023-02-19T05:02:23.017Z,95.17
2023-02-19T05:06:24.354Z,94.65
2023-02-19T05:10:25.699Z,94.38
2023-02-19T05:14:28.409Z,94.25
2023-02-19T05:18:29.833Z,94.48
2023-02-19T05:22:31.242Z,94.66
2023-02-19T05:26:32.587Z,95.05
2023-02-19T05:30:35.469Z,94.77
2023-02-19T05:34:37.095Z,94.67
2023-02-19T05:38:39.015Z,94.11
2023-02-19T05:42:40.353Z,93.68
2023-02-19T05:46:43.141Z,93.89
2023-02-19T05:50:44.524Z,93.96
2023-02-19T05:54:45.860Z,93.54
2023-02-19T05:58:47.188Z,93.85
2023-02-19T06:02:49.918Z,93.35
2023-02-19T06:06:51.319Z,92.93
2023-02-19T06:10:52.715Z,92.60
2023-02-19T06:14:54.049Z,92.11
2023-02-19T06:18:56.734Z,92.19
2023-02-19T06:22:58.071Z,91.95
2023-02-19T06:26:59.462Z,92.06
2023-02-19T06:31:00.887Z,91.73
2023-02-19T06:35:03.826Z,90.88
2023-02-19T06:39:05.424Z,90.54
2023-02-19T06:43:06.798Z,89.84
2023-02-19T06:47:08.136Z,89.81
2023-02-19T06:51:12.915Z,89.36
2023-02-19T06:55:14.346Z,89.55
2023-02-19T06:59:16.020Z,89.36
2023-02-19T07:03:17.330Z,89.44
2023-02-19T07:07:20.141Z,88.97
2023-02-19T07:11:21.521Z,88.93
2023-02-19T07:15:22.858Z,88.65
2023-02-19T07:19:24.182Z,88.55
2023-02-19T07:23:26.984Z,88.03
2023-02-19T07:27:28.310Z,87.59
2023-02-19T07:31:29.747Z,88.41
2023-02-19T07:35:31.171Z,87.09
2023-02-19T07:39:33.855Z,87.04
2023-02-19T07:43:35.812Z,87.12
2023-02-19T07:47:37.148Z,87.06
2023-02-19T07:51:38.480Z,86.78
2023-02-19T07:55:41.161Z,86.89
2023-02-19T07:59:42.487Z,86.44
2023-02-19T08:03:44.610Z,85.58
2023-02-19T08:07:45.926Z,85.88
2023-02-19T08:11:48.672Z,85.26
2023-02-19T08:15:50.737Z,85.31
2023-02-19T08:19:52.089Z,84.50
2023-02-19T08:23:53.441Z,84.96
2023-02-19T08:27:56.251Z,84.29
2023-02-19T08:31:57.641Z,83.81
2023-02-19T08:36:01.480Z,83.22
2023-02-19T08:40:03.017Z,83.59
2023-02-19T08:44:05.752Z,83.27
2023-02-19T08:48:07.658Z,82.76
2023-02-19T08:52:09.031Z,83.31
2023-02-19T08:56:11.344Z,82.44
2023-02-19T09:00:14.781Z,82.61
2023-02-19T09:04:16.138Z,82.20
2023-02-19T09:08:17.490Z,81.92
2023-02-19T09:12:19.090Z,81.62
2023-02-19T09:16:21.913Z,81.35
2023-02-19T09:20:23.365Z,81.30
2023-02-19T09:24:24.769Z,81.30
2023-02-19T09:28:26.185Z,81.02
2023-02-19T09:32:31.497Z,81.59
2023-02-19T09:36:32.898Z,81.97
2023-02-19T09:40:35.542Z,81.61
2023-02-19T09:44:38.958Z,81.54
2023-02-19T09:48:41.978Z,80.95
2023-02-19T09:52:45.530Z,80.87
2023-02-19T09:56:46.940Z,80.47
2023-02-19T10:00:49.370Z,81.59
2023-02-19T10:04:52.412Z,82.94
2023-02-19T10:08:55.811Z,83.78
2023-02-19T10:13:02.601Z,82.37
2023-02-19T10:17:05.245Z,82.48
2023-02-19T10:21:08.076Z,81.99
2023-02-19T10:25:13.417Z,82.01
2023-02-19T10:29:14.810Z,80.73
2023-02-19T10:33:16.404Z,81.27
2023-02-19T10:37:19.166Z,81.72
2023-02-19T10:41:22.167Z,80.21
2023-02-19T10:45:25.541Z,81.07
2023-02-19T10:49:28.072Z,80.62
2023-02-19T10:53:38.822Z,80.17
2023-02-19T10:57:40.243Z,80.40
2023-02-19T11:01:52.953Z,80.80
2023-02-19T11:05:57.989Z,80.07
2023-02-19T11:10:01.007Z,79.75
2023-02-19T11:14:04.146Z,79.97
2023-02-19T11:18:17.743Z,79.95
2023-02-19T11:22:20.625Z,79.95
2023-02-19T11:26:25.350Z,80.10
2023-02-19T11:30:37.677Z,80.25
2023-02-19T11:34:39.067Z,79.36
2023-02-19T11:38:40.450Z,79.72
2023-02-19T11:42:44.884Z,79.73
2023-02-19T11:46:49.714Z,79.57
2023-02-19T11:50:56.559Z,80.13
2023-02-19T11:55:03.682Z,80.08
2023-02-19T11:59:11.455Z,80.06
2023-02-19T12:03:32.007Z,80.31
2023-02-19T12:07:48.235Z,79.93
2023-02-19T12:11:52.348Z,78.75
2023-02-19T12:16:02.666Z,77.97
2023-02-19T12:20:13.199Z,77.86
2023-02-19T12:24:21.654Z,77.32
2023-02-19T12:28:37.438Z,79.33
2023-02-19T12:32:44.751Z,80.29
2023-02-19T12:36:52.883Z,80.30
2023-02-19T12:41:03.626Z,80.78
2023-02-19T12:45:07.072Z,82.90
2023-02-19T12:49:13.482Z,83.79
2023-02-19T12:53:21.684Z,83.98
2023-02-19T12:57:24.825Z,83.38
2023-02-19T13:01:28.418Z,84.40
2023-02-19T13:05:38.342Z,83.37
2023-02-19T13:09:41.198Z,83.45
2023-02-19T13:13:44.021Z,83.05
2023-02-19T13:17:47.293Z,84.47
2023-02-19T13:21:55.522Z,84.02
2023-02-19T13:26:06.182Z,82.37
2023-02-19T13:30:15.399Z,81.99
2023-02-19T13:34:23.507Z,78.72
2023-02-19T13:38:26.465Z,79.80
2023-02-19T13:42:31.035Z,80.37
2023-02-19T13:46:33.825Z,79.57
2023-02-19T13:50:35.210Z,78.19
2023-02-19T13:54:37.956Z,78.63
2023-02-19T13:58:57.377Z,77.76
2023-02-19T14:03:13.640Z,77.77
2023-02-19T14:07:35.334Z,76.86
2023-02-19T14:12:03.929Z,76.47
2023-02-19T14:16:26.809Z,77.15
2023-02-19T14:20:40.867Z,77.73
2023-02-19T14:24:42.271Z,77.90
2023-02-19T14:28:44.495Z,77.21
2023-02-19T14:32:54.507Z,76.41
2023-02-19T14:36:59.111Z,76.98
2023-02-19T14:41:02.579Z,77.09
2023-02-19T14:45:06.263Z,79.49
2023-02-19T14:49:15.100Z,80.89
2023-02-19T14:53:17.453Z,81.68
2023-02-19T14:57:22.061Z,83.17
2023-02-19T15:01:26.788Z,84.79
2023-02-19T15:05:31.842Z,86.36
2023-02-19T15:09:36.726Z,87.36
2023-02-19T15:13:39.651Z,87.54
2023-02-19T15:17:41.152Z,88.01
2023-02-19T15:21:46.510Z,87.32
2023-02-19T15:25:48.268Z,85.89
2023-02-19T15:29:52.990Z,85.97
2023-02-19T15:33:54.791Z,85.65
2023-02-19T15:37:57.509Z,84.87
2023-02-19T15:42:00.650Z,85.26
2023-02-19T15:46:04.109Z,85.55
2023-02-19T15:50:07.968Z,84.19
2023-02-19T15:54:14.701Z,84.10
2023-02-19T15:58:19.937Z,84.25
2023-02-19T16:02:21.581Z,84.67
2023-02-19T16:06:23.638Z,84.32
2023-02-19T16:10:26.407Z,83.81
2023-02-19T16:14:31.550Z,84.48
2023-02-19T16:18:33.407Z,83.26
2023-02-19T16:22:40.624Z,83.59
2023-02-19T16:26:44.204Z,84.68
2023-02-19T16:30:45.610Z,84.16
2023-02-19T16:34:48.022Z,84.75
2023-02-19T16:38:59.374Z,84.84
2023-02-19T16:43:19.180Z,84.69
2023-02-19T16:47:27.635Z,85.18
2023-02-19T16:51:28.975Z,84.98
2023-02-19T16:55:31.358Z,85.10
2023-02-19T16:59:32.759Z,85.25
2023-02-19T17:03:38.383Z,85.11
2023-02-19T17:07:39.798Z,86.34
2023-02-19T17:11:41.184Z,86.89
2023-02-19T17:15:42.528Z,87.01
2023-02-19T17:19:45.267Z,87.09
2023-02-19T17:23:46.655Z,87.76
2023-02-19T17:27:48.141Z,88.27
2023-02-19T17:31:49.567Z,88.42
2023-02-19T17:35:52.340Z,88.89
2023-02-19T17:39:53.742Z,89.50
2023-02-19T17:43:55.321Z,89.58
2023-02-19T17:47:56.643Z,89.03
2023-02-19T17:51:59.365Z,88.79
2023-02-19T17:56:00.716Z,88.38
2023-02-19T18:00:02.144Z,88.20
2023-02-19T18:04:03.704Z,88.73
2023-02-19T18:08:06.434Z,89.23
2023-02-19T18:12:08.157Z,89.88
2023-02-19T18:16:09.599Z,90.91
2023-02-19T18:20:13.124Z,91.17
2023-02-19T18:24:15.864Z,90.91
2023-02-19T18:28:17.189Z,90.96
2023-02-19T18:32:18.596Z,91.73
2023-02-19T18:36:19.986Z,89.97
2023-02-19T18:40:23.209Z,89.16
2023-02-19T18:44:24.698Z,89.10
2023-02-19T18:48:26.062Z,88.68
2023-02-19T18:52:27.427Z,88.53
2023-02-19T18:56:30.184Z,87.90
2023-02-19T19:00:31.605Z,88.06
2023-02-19T19:04:33.243Z,87.85
2023-02-19T19:08:34.599Z,87.72
2023-02-19T19:12:37.312Z,88.09
2023-02-19T19:16:38.692Z,87.88
2023-02-19T19:20:40.158Z,88.13
2023-02-19T19:24:42.357Z,88.15
2023-02-19T19:28:45.049Z,88.47
2023-02-19T19:32:47.887Z,88.37
2023-02-19T19:36:49.318Z,88.86
2023-02-19T19:40:50.692Z,88.95
2023-02-19T19:44:53.409Z,88.82
2023-02-19T19:48:54.761Z,88.60
2023-02-19T19:52:56.180Z,88.42
2023-02-19T19:56:57.565Z,90.03
2023-02-19T20:01:00.351Z,90.48
2023-02-19T20:05:01.709Z,90.59
2023-02-19T20:09:03.135Z,89.52
2023-02-19T20:13:04.502Z,89.60
2023-02-19T20:17:07.203Z,88.91
2023-02-19T20:21:08.708Z,89.02
2023-02-19T20:25:10.425Z,88.83
2023-02-19T20:29:12.087Z,88.69
2023-02-19T20:33:14.876Z,88.19
2023-02-19T20:37:16.302Z,87.80
2023-02-19T20:41:17.671Z,87.42
2023-02-19T20:45:19.120Z,87.30
2023-02-19T20:49:23.389Z,86.99
2023-02-19T20:53:24.824Z,87.20
2023-02-19T20:57:26.200Z,87.21
2023-02-19T21:01:27.766Z,86.98
2023-02-19T21:05:30.499Z,86.87
2023-02-19T21:09:31.874Z,87.03
2023-02-19T21:13:33.256Z,86.95
2023-02-19T21:17:34.646Z,86.95
2023-02-19T21:21:37.367Z,86.74
2023-02-19T21:25:38.694Z,86.68
2023-02-19T21:29:40.057Z,86.18
2023-02-19T21:33:41.398Z,85.97
2023-02-19T21:37:44.170Z,85.81
2023-02-19T21:41:45.573Z,86.05
2023-02-19T21:45:46.982Z,85.22
2023-02-19T21:49:48.391Z,85.67
2023-02-19T21:53:51.236Z,86.59
2023-02-19T21:57:52.754Z,86.52
2023-02-19T22:01:54.150Z,86.89
2023-02-19T22:05:55.525Z,86.64
2023-02-19T22:09:58.260Z,86.81
2023-02-19T22:13:59.872Z,86.75
2023-02-19T22:18:01.234Z,87.04
2023-02-19T22:22:02.839Z,87.38
2023-02-19T22:26:05.639Z,87.06
2023-02-19T22:30:07.558Z,87.19
2023-02-19T22:34:09.072Z,87.39
2023-02-19T22:38:10.460Z,87.66
2023-02-19T22:42:13.197Z,87.52
2023-02-19T22:46:16.331Z,87.60
2023-02-19T22:50:18.296Z,87.71
2023-02-19T22:54:19.710Z,87.70
2023-02-19T22:58:22.456Z,88.11
2023-02-19T23:02:23.818Z,88.16
2023-02-19T23:06:26.428Z,88.45
2023-02-19T23:10:27.803Z,88.29
2023-02-19T23:14:30.537Z,88.00
2023-02-19T23:18:31.906Z,88.19
2023-02-19T23:22:33.230Z,88.16
2023-02-19T23:26:34.730Z,88.39
2023-02-19T23:30:37.542Z,88.35
2023-02-19T23:34:38.907Z,88.48
2023-02-19T23:38:40.270Z,88.56
2023-02-19T23:42:41.590Z,88.59
2023-02-19T23:46:44.748Z,88.89
2023-02-19T23:50:46.194Z,89.02
2023-02-19T23:54:47.536Z,89.03
2023-02-19T23:58:48.878Z,89.25
